sensor_id;sensor_type;location;lat;lon;timestamp;pressure;altitude;pressure_sealevel;temperature;humidity
56402;BME280;42299;35.160;26.100;2022-11-22T00:01:02;101121.22;;;15.53;100.00
56402;BME280;42299;35.160;26.100;2022-11-22T00:02:25;101124.75;;;15.52;100.00
56402;BME280;42299;35.160;26.100;2022-11-22T00:03:47;101127.41;;;15.49;100.00
56402;BME280;42299;35.160;26.100;2022-11-22T00:05:10;101132.75;;;15.49;100.00
56402;BME280;42299;35.160;26.100;2022-11-22T00:06:33;101136.28;;;15.48;100.00
56402;BME280;42299;35.160;26.100;2022-11-22T00:07:56;101141.59;;;15.48;100.00
56402;BME280;42299;35.160;26.100;2022-11-22T00:09:19;101142.47;;;15.42;100.00
56402;BME280;42299;35.160;26.100;2022-11-22T00:10:41;101138.94;;;15.36;100.00
56402;BME280;42299;35.160;26.100;2022-11-22T00:12:04;101134.47;;;15.35;100.00
56402;BME280;42299;35.160;26.100;2022-11-22T00:13:26;101141.56;;;15.37;100.00
56402;BME280;42299;35.160;26.100;2022-11-22T00:14:49;101133.63;;;15.42;100.00
56402;BME280;42299;35.160;26.100;2022-11-22T00:16:10;101125.59;;;15.43;100.00
56402;BME280;42299;35.160;26.100;2022-11-22T00:17:33;101126.50;;;15.47;100.00
56402;BME280;42299;35.160;26.100;2022-11-22T00:18:55;101130.09;;;15.49;100.00
56402;BME280;42299;35.160;26.100;2022-11-22T00:20:18;101129.19;;;15.48;100.00
56402;BME280;42299;35.160;26.100;2022-11-22T00:21:40;101133.59;;;15.49;100.00
56402;BME280;42299;35.160;26.100;2022-11-22T00:23:04;101130.94;;;15.49;100.00
56402;BME280;42299;35.160;26.100;2022-11-22T00:24:25;101131.81;;;15.50;100.00
56402;BME280;42299;35.160;26.100;2022-11-22T00:25:48;101133.59;;;15.51;100.00
56402;BME280;42299;35.160;26.100;2022-11-22T00:27:09;101130.94;;;15.51;100.00
56402;BME280;42299;35.160;26.100;2022-11-22T00:28:32;101129.16;;;15.50;100.00
56402;BME280;42299;35.160;26.100;2022-11-22T00:29:54;101130.09;;;15.49;100.00
56402;BME280;42299;35.160;26.100;2022-11-22T00:31:17;101120.31;;;15.48;100.00
56402;BME280;42299;35.160;26.100;2022-11-22T00:32:39;101122.06;;;15.46;100.00
56402;BME280;42299;35.160;26.100;2022-11-22T00:34:01;101110.53;;;15.44;100.00
56402;BME280;42299;35.160;26.100;2022-11-22T00:35:24;101102.56;;;15.42;100.00
56402;BME280;42299;35.160;26.100;2022-11-22T00:36:45;101090.16;;;15.40;100.00
56402;BME280;42299;35.160;26.100;2022-11-22T00:38:09;101088.38;;;15.39;100.00
56402;BME280;42299;35.160;26.100;2022-11-22T00:39:32;101080.41;;;15.36;100.00
56402;BME280;42299;35.160;26.100;2022-11-22T00:40:53;101079.50;;;15.32;100.00
56402;BME280;42299;35.160;26.100;2022-11-22T00:42:16;101088.34;;;15.31;100.00
56402;BME280;42299;35.160;26.100;2022-11-22T00:43:38;101085.69;;;15.31;100.00
56402;BME280;42299;35.160;26.100;2022-11-22T00:45:01;101086.56;;;15.30;100.00
56402;BME280;42299;35.160;26.100;2022-11-22T00:46:22;101088.34;;;15.31;100.00
56402;BME280;42299;35.160;26.100;2022-11-22T00:47:45;101092.78;;;15.22;100.00
56402;BME280;42299;35.160;26.100;2022-11-22T00:49:07;101098.97;;;15.13;100.00
56402;BME280;42299;35.160;26.100;2022-11-22T00:50:30;101103.38;;;15.08;100.00
56402;BME280;42299;35.160;26.100;2022-11-22T00:51:52;101106.91;;;15.10;100.00
56402;BME280;42299;35.160;26.100;2022-11-22T00:53:16;101106.91;;;15.10;100.00
56402;BME280;42299;35.160;26.100;2022-11-22T00:54:38;101109.56;;;15.10;100.00
56402;BME280;42299;35.160;26.100;2022-11-22T00:56:01;101110.47;;;15.10;100.00
56402;BME280;42299;35.160;26.100;2022-11-22T00:57:22;101109.56;;;15.10;100.00
56402;BME280;42299;35.160;26.100;2022-11-22T00:58:45;101108.72;;;15.09;100.00
56402;BME280;42299;35.160;26.100;2022-11-22T01:00:07;101113.16;;;15.09;100.00
56402;BME280;42299;35.160;26.100;2022-11-22T01:01:30;101108.72;;;15.08;100.00
56402;BME280;42299;35.160;26.100;2022-11-22T01:19:00;101090.97;;;15.02;100.00
56402;BME280;42299;35.160;26.100;2022-11-22T01:20:23;101089.19;;;15.01;100.00
56402;BME280;42299;35.160;26.100;2022-11-22T01:21:45;101096.28;;;15.02;100.00
56402;BME280;42299;35.160;26.100;2022-11-22T01:23:08;101098.91;;;15.04;100.00
56402;BME280;42299;35.160;26.100;2022-11-22T01:24:29;101102.47;;;15.04;100.00
56402;BME280;42299;35.160;26.100;2022-11-22T01:25:52;101105.13;;;15.04;100.00
56402;BME280;42299;35.160;26.100;2022-11-22T01:27:13;101103.34;;;15.03;100.00
56402;BME280;42299;35.160;26.100;2022-11-22T01:28:35;101101.59;;;15.07;100.00
56402;BME280;42299;35.160;26.100;2022-11-22T01:29:58;101106.06;;;15.09;100.00
56402;BME280;42299;35.160;26.100;2022-11-22T01:31:20;101117.56;;;15.11;100.00
56402;BME280;42299;35.160;26.100;2022-11-22T01:32:43;101122.00;;;15.11;100.00
56402;BME280;42299;35.160;26.100;2022-11-22T01:34:06;101120.22;;;15.10;100.00
56402;BME280;42299;35.160;26.100;2022-11-22T01:35:28;101123.75;;;15.10;100.00
56402;BME280;42299;35.160;26.100;2022-11-22T01:36:51;101115.81;;;15.09;100.00
56402;BME280;42299;35.160;26.100;2022-11-22T01:38:12;101122.88;;;15.07;100.00
56402;BME280;42299;35.160;26.100;2022-11-22T01:39:34;101117.53;;;15.05;100.00
56402;BME280;42299;35.160;26.100;2022-11-22T01:40:57;101129.09;;;15.03;100.00
56402;BME280;42299;35.160;26.100;2022-11-22T01:42:18;101124.63;;;15.02;100.00
56402;BME280;42299;35.160;26.100;2022-11-22T01:43:40;101125.53;;;15.01;100.00
56402;BME280;42299;35.160;26.100;2022-11-22T01:45:38;101125.50;;;14.99;100.00
56402;BME280;42299;35.160;26.100;2022-11-22T01:47:04;101124.63;;;14.96;100.00
56402;BME280;42299;35.160;26.100;2022-11-22T01:48:37;101118.41;;;14.95;100.00
56402;BME280;42299;35.160;26.100;2022-11-22T01:50:06;101125.50;;;14.95;100.00
56402;BME280;42299;35.160;26.100;2022-11-22T01:51:32;101128.16;;;14.93;100.00
56402;BME280;42299;35.160;26.100;2022-11-22T01:52:59;101121.03;;;14.91;100.00
56402;BME280;42299;35.160;26.100;2022-11-22T01:54:24;101116.59;;;14.87;100.00
56402;BME280;42299;35.160;26.100;2022-11-22T01:55:50;101121.91;;;14.84;100.00
56402;BME280;42299;35.160;26.100;2022-11-22T01:57:17;101120.13;;;14.81;100.00
56402;BME280;42299;35.160;26.100;2022-11-22T01:58:42;101116.56;;;14.77;100.00
56402;BME280;42299;35.160;26.100;2022-11-22T02:00:09;101112.16;;;14.77;100.00
56402;BME280;42299;35.160;26.100;2022-11-22T02:01:38;101109.44;;;14.72;100.00
56402;BME280;42299;35.160;26.100;2022-11-22T02:03:03;101109.47;;;14.69;100.00
56402;BME280;42299;35.160;26.100;2022-11-22T02:04:29;101109.41;;;14.66;100.00
56402;BME280;42299;35.160;26.100;2022-11-22T02:05:55;101116.50;;;14.64;100.00
56402;BME280;42299;35.160;26.100;2022-11-22T02:07:21;101122.69;;;14.64;100.00
56402;BME280;42299;35.160;26.100;2022-11-22T02:08:51;101120.03;;;14.64;100.00
56402;BME280;42299;35.160;26.100;2022-11-22T02:10:16;101127.13;;;14.64;100.00
56402;BME280;42299;35.160;26.100;2022-11-22T02:11:42;101120.94;;;14.63;100.00
56402;BME280;42299;35.160;26.100;2022-11-22T02:13:07;101125.38;;;14.63;100.00
56402;BME280;42299;35.160;26.100;2022-11-22T02:14:33;101127.13;;;14.61;100.00
56402;BME280;42299;35.160;26.100;2022-11-22T02:15:56;101124.47;;;14.61;100.00
56402;BME280;42299;35.160;26.100;2022-11-22T02:17:18;101135.09;;;14.61;100.00
56402;BME280;42299;35.160;26.100;2022-11-22T02:18:40;101134.19;;;14.59;100.00
56402;BME280;42299;35.160;26.100;2022-11-22T02:20:02;101132.41;;;14.58;100.00
56402;BME280;42299;35.160;26.100;2022-11-22T02:21:26;101123.53;;;14.57;100.00
56402;BME280;42299;35.160;26.100;2022-11-22T02:22:51;101126.22;;;14.59;100.00
56402;BME280;42299;35.160;26.100;2022-11-22T02:24:19;101128.88;;;14.59;100.00
56402;BME280;42299;35.160;26.100;2022-11-22T02:25:58;101135.06;;;14.58;100.00
56402;BME280;42299;35.160;26.100;2022-11-22T02:27:22;101139.47;;;14.57;100.00
56402;BME280;42299;35.160;26.100;2022-11-22T02:28:45;101133.31;;;14.57;100.00
56402;BME280;42299;35.160;26.100;2022-11-22T02:30:09;101145.69;;;14.58;100.00
56402;BME280;42299;35.160;26.100;2022-11-22T02:31:37;101140.41;;;14.56;100.00
56402;BME280;42299;35.160;26.100;2022-11-22T02:32:58;101146.59;;;14.55;100.00
56402;BME280;42299;35.160;26.100;2022-11-22T02:34:21;101149.22;;;14.52;100.00
56402;BME280;42299;35.160;26.100;2022-11-22T02:35:43;101146.56;;;14.49;100.00
56402;BME280;42299;35.160;26.100;2022-11-22T02:37:06;101136.81;;;14.48;100.00
56402;BME280;42299;35.160;26.100;2022-11-22T02:38:31;101137.69;;;14.47;100.00
56402;BME280;42299;35.160;26.100;2022-11-22T02:39:58;101131.47;;;14.42;100.00
56402;BME280;42299;35.160;26.100;2022-11-22T02:41:22;101139.38;;;14.38;100.00
56402;BME280;42299;35.160;26.100;2022-11-22T02:42:47;101139.34;;;14.36;100.00
56402;BME280;42299;35.160;26.100;2022-11-22T02:44:12;101142.88;;;14.33;100.00
56402;BME280;42299;35.160;26.100;2022-11-22T02:45:33;101151.72;;;14.32;100.00
56402;BME280;42299;35.160;26.100;2022-11-22T02:46:56;101151.69;;;14.31;100.00
56402;BME280;42299;35.160;26.100;2022-11-22T02:48:19;101149.94;;;14.31;100.00
56402;BME280;42299;35.160;26.100;2022-11-22T02:49:40;101152.56;;;14.31;100.00
56402;BME280;42299;35.160;26.100;2022-11-22T02:51:03;101150.84;;;14.30;100.00
56402;BME280;42299;35.160;26.100;2022-11-22T02:52:25;101156.16;;;14.30;100.00
56402;BME280;42299;35.160;26.100;2022-11-22T02:53:49;101156.13;;;14.29;100.00
56402;BME280;42299;35.160;26.100;2022-11-22T02:55:10;101157.00;;;14.28;100.00
56402;BME280;42299;35.160;26.100;2022-11-22T02:56:34;101160.53;;;14.27;100.00
56402;BME280;42299;35.160;26.100;2022-11-22T02:57:57;101156.97;;;14.25;100.00
56402;BME280;42299;35.160;26.100;2022-11-22T02:59:19;101159.63;;;14.23;100.00
56402;BME280;42299;35.160;26.100;2022-11-22T03:00:42;101161.41;;;14.23;100.00
56402;BME280;42299;35.160;26.100;2022-11-22T03:02:04;101164.03;;;14.21;100.00
56402;BME280;42299;35.160;26.100;2022-11-22T03:03:25;101156.06;;;14.21;100.00
56402;BME280;42299;35.160;26.100;2022-11-22T03:04:48;101160.47;;;14.19;100.00
56402;BME280;42299;35.160;26.100;2022-11-22T03:06:10;101162.22;;;14.19;100.00
56402;BME280;42299;35.160;26.100;2022-11-22T03:07:33;101156.94;;;14.17;100.00
56402;BME280;42299;35.160;26.100;2022-11-22T03:08:54;101160.47;;;14.16;100.00
56402;BME280;42299;35.160;26.100;2022-11-22T03:10:17;101159.56;;;14.16;100.00
56402;BME280;42299;35.160;26.100;2022-11-22T03:11:41;101163.09;;;14.15;100.00
56402;BME280;42299;35.160;26.100;2022-11-22T03:13:03;101166.63;;;14.14;100.00
56402;BME280;42299;35.160;26.100;2022-11-22T03:14:26;101158.66;;;14.11;100.00
56402;BME280;42299;35.160;26.100;2022-11-22T03:15:47;101159.53;;;14.10;100.00
56402;BME280;42299;35.160;26.100;2022-11-22T03:17:10;101161.25;;;14.06;100.00
56402;BME280;42299;35.160;26.100;2022-11-22T03:18:34;101151.53;;;14.04;100.00
56402;BME280;42299;35.160;26.100;2022-11-22T03:19:55;101159.47;;;14.02;100.00
56402;BME280;42299;35.160;26.100;2022-11-22T03:21:18;101157.66;;;14.00;100.00
56402;BME280;42299;35.160;26.100;2022-11-22T03:22:40;101157.66;;;13.98;100.00
56402;BME280;42299;35.160;26.100;2022-11-22T03:24:03;101169.16;;;13.97;100.00
56402;BME280;42299;35.160;26.100;2022-11-22T03:25:24;101167.34;;;13.90;100.00
56402;BME280;42299;35.160;26.100;2022-11-22T03:26:49;101170.00;;;13.90;100.00
56402;BME280;42299;35.160;26.100;2022-11-22T03:28:11;101163.81;;;13.94;100.00
56402;BME280;42299;35.160;26.100;2022-11-22T03:29:32;101169.16;;;13.98;100.00
56402;BME280;42299;35.160;26.100;2022-11-22T03:30:55;101171.81;;;14.00;100.00
56402;BME280;42299;35.160;26.100;2022-11-22T03:32:18;101178.00;;;13.96;100.00
56402;BME280;42299;35.160;26.100;2022-11-22T03:33:39;101168.16;;;13.83;100.00
56402;BME280;42299;35.160;26.100;2022-11-22T03:35:02;101177.84;;;13.79;100.00
56402;BME280;42299;35.160;26.100;2022-11-22T03:36:25;101177.84;;;13.81;100.00
56402;BME280;42299;35.160;26.100;2022-11-22T03:37:46;101180.53;;;13.82;100.00
56402;BME280;42299;35.160;26.100;2022-11-22T03:39:09;101176.97;;;13.82;100.00
56402;BME280;42299;35.160;26.100;2022-11-22T03:40:31;101184.06;;;13.83;100.00
56402;BME280;42299;35.160;26.100;2022-11-22T03:41:56;101181.41;;;13.81;100.00
56402;BME280;42299;35.160;26.100;2022-11-22T03:43:18;101176.13;;;13.83;100.00
56402;BME280;42299;35.160;26.100;2022-11-22T03:44:41;101178.78;;;13.83;100.00
56402;BME280;42299;35.160;26.100;2022-11-22T03:46:03;101192.03;;;13.83;100.00
56402;BME280;42299;35.160;26.100;2022-11-22T03:47:25;101190.28;;;13.83;100.00
56402;BME280;42299;35.160;26.100;2022-11-22T03:48:46;101194.72;;;13.87;100.00
56402;BME280;42299;35.160;26.100;2022-11-22T03:50:09;101190.31;;;13.88;100.00
56402;BME280;42299;35.160;26.100;2022-11-22T03:51:30;101194.75;;;13.89;100.00
56402;BME280;42299;35.160;26.100;2022-11-22T03:52:53;101200.91;;;13.86;100.00
56402;BME280;42299;35.160;26.100;2022-11-22T03:54:15;101191.13;;;13.81;100.00
56402;BME280;42299;35.160;26.100;2022-11-22T03:55:38;101195.53;;;13.77;100.00
56402;BME280;42299;35.160;26.100;2022-11-22T03:57:01;101191.91;;;13.72;100.00
56402;BME280;42299;35.160;26.100;2022-11-22T03:58:24;101195.44;;;13.70;100.00
56402;BME280;42299;35.160;26.100;2022-11-22T03:59:45;101194.47;;;13.62;100.00
56402;BME280;42299;35.160;26.100;2022-11-22T04:01:07;101190.91;;;13.56;100.00
56402;BME280;42299;35.160;26.100;2022-11-22T04:02:29;101198.81;;;13.53;100.00
56402;BME280;42299;35.160;26.100;2022-11-22T04:03:51;101207.66;;;13.54;100.00
56402;BME280;42299;35.160;26.100;2022-11-22T04:05:12;101212.09;;;13.55;100.00
56402;BME280;42299;35.160;26.100;2022-11-22T04:06:35;101213.03;;;13.59;100.00
56402;BME280;42299;35.160;26.100;2022-11-22T04:07:56;101224.56;;;13.62;100.00
56402;BME280;42299;35.160;26.100;2022-11-22T04:09:19;101220.13;;;13.63;100.00
56402;BME280;42299;35.160;26.100;2022-11-22T04:10:41;101223.69;;;13.63;100.00
56402;BME280;42299;35.160;26.100;2022-11-22T04:12:05;101222.78;;;13.63;100.00
56402;BME280;42299;35.160;26.100;2022-11-22T04:13:27;101224.53;;;13.61;100.00
56402;BME280;42299;35.160;26.100;2022-11-22T04:15:03;101229.81;;;13.57;100.00
56402;BME280;42299;35.160;26.100;2022-11-22T04:16:28;101216.50;;;13.54;100.00
56402;BME280;42299;35.160;26.100;2022-11-22T04:17:49;101221.78;;;13.53;100.00
56402;BME280;42299;35.160;26.100;2022-11-22T04:19:12;101223.56;;;13.54;100.00
56402;BME280;42299;35.160;26.100;2022-11-22T04:20:33;101226.19;;;13.52;100.00
56402;BME280;42299;35.160;26.100;2022-11-22T04:22:13;101229.75;;;13.51;100.00
56402;BME280;42299;35.160;26.100;2022-11-22T04:23:35;101235.06;;;13.53;100.00
56402;BME280;42299;35.160;26.100;2022-11-22T04:24:57;101238.59;;;13.52;100.00
56402;BME280;42299;35.160;26.100;2022-11-22T04:26:37;101232.38;;;13.50;100.00
56402;BME280;42299;35.160;26.100;2022-11-22T04:28:00;101243.88;;;13.50;100.00
56402;BME280;42299;35.160;26.100;2022-11-22T04:29:23;101254.44;;;13.47;100.00
56402;BME280;42299;35.160;26.100;2022-11-22T04:30:45;101242.03;;;13.43;100.00
56402;BME280;42299;35.160;26.100;2022-11-22T04:32:25;101246.38;;;13.40;100.00
56402;BME280;42299;35.160;26.100;2022-11-22T04:34:04;101237.53;;;13.39;100.00
56402;BME280;42299;35.160;26.100;2022-11-22T04:35:27;101240.22;;;13.41;100.00
56402;BME280;42299;35.160;26.100;2022-11-22T04:36:49;101248.19;;;13.42;100.00
56402;BME280;42299;35.160;26.100;2022-11-22T04:38:11;101243.75;;;13.41;100.00
56402;BME280;42299;35.160;26.100;2022-11-22T04:39:33;101237.56;;;13.41;100.00
56402;BME280;42299;35.160;26.100;2022-11-22T04:40:55;101249.06;;;13.38;100.00
56402;BME280;42299;35.160;26.100;2022-11-22T04:42:17;101249.03;;;13.37;100.00
56402;BME280;42299;35.160;26.100;2022-11-22T04:43:58;101248.09;;;13.35;100.00
56402;BME280;42299;35.160;26.100;2022-11-22T04:45:38;101247.19;;;13.33;100.00
56402;BME280;42299;35.160;26.100;2022-11-22T04:47:01;101246.31;;;13.32;100.00
56402;BME280;42299;35.160;26.100;2022-11-22T04:48:22;101248.06;;;13.30;100.00
56402;BME280;42299;35.160;26.100;2022-11-22T04:49:44;101255.97;;;13.29;100.00
56402;BME280;42299;35.160;26.100;2022-11-22T04:51:06;101259.53;;;13.29;100.00
56402;BME280;42299;35.160;26.100;2022-11-22T04:52:48;101260.38;;;13.27;100.00
56402;BME280;42299;35.160;26.100;2022-11-22T04:54:15;101259.50;;;13.28;100.00
56402;BME280;42299;35.160;26.100;2022-11-22T04:55:38;101261.25;;;13.27;100.00
56402;BME280;42299;35.160;26.100;2022-11-22T04:57:00;101262.16;;;13.28;100.00
56402;BME280;42299;35.160;26.100;2022-11-22T04:58:23;101261.25;;;13.27;100.00
56402;BME280;42299;35.160;26.100;2022-11-22T04:59:47;101263.03;;;13.27;100.00
56402;BME280;42299;35.160;26.100;2022-11-22T05:01:10;101281.59;;;13.25;100.00
56402;BME280;42299;35.160;26.100;2022-11-22T05:02:32;101279.84;;;13.26;100.00
56402;BME280;42299;35.160;26.100;2022-11-22T05:03:53;101273.63;;;13.25;100.00
56402;BME280;42299;35.160;26.100;2022-11-22T05:05:16;101285.13;;;13.26;100.00
56402;BME280;42299;35.160;26.100;2022-11-22T05:06:37;101283.34;;;13.26;100.00
56402;BME280;42299;35.160;26.100;2022-11-22T05:07:59;101278.97;;;13.28;100.00
56402;BME280;42299;35.160;26.100;2022-11-22T05:09:22;101279.00;;;13.33;100.00
56402;BME280;42299;35.160;26.100;2022-11-22T05:10:43;101285.28;;;13.38;100.00
56402;BME280;42299;35.160;26.100;2022-11-22T05:12:17;101282.72;;;13.44;100.00
56402;BME280;42299;35.160;26.100;2022-11-22T05:13:41;101270.41;;;13.50;100.00
56402;BME280;42299;35.160;26.100;2022-11-22T05:15:06;101284.59;;;13.55;100.00
56402;BME280;42299;35.160;26.100;2022-11-22T05:16:28;101279.34;;;13.59;100.00
56402;BME280;42299;35.160;26.100;2022-11-22T05:17:50;101289.13;;;13.63;100.00
56402;BME280;42299;35.160;26.100;2022-11-22T05:19:12;101295.31;;;13.66;100.00
56402;BME280;42299;35.160;26.100;2022-11-22T05:20:35;101295.31;;;13.66;100.00
56402;BME280;42299;35.160;26.100;2022-11-22T05:21:56;101302.41;;;13.66;100.00
56402;BME280;42299;35.160;26.100;2022-11-22T05:23:19;101299.78;;;13.67;100.00
56402;BME280;42299;35.160;26.100;2022-11-22T05:24:59;101298.84;;;13.64;100.00
56402;BME280;42299;35.160;26.100;2022-11-22T05:26:21;101299.72;;;13.63;100.00
56402;BME280;42299;35.160;26.100;2022-11-22T05:27:43;101303.25;;;13.62;100.00
56402;BME280;42299;35.160;26.100;2022-11-22T05:29:06;101303.22;;;13.60;100.00
56402;BME280;42299;35.160;26.100;2022-11-22T05:30:30;101299.69;;;13.58;100.00
56402;BME280;42299;35.160;26.100;2022-11-22T05:31:51;101300.53;;;13.55;100.00
56402;BME280;42299;35.160;26.100;2022-11-22T05:33:14;101300.53;;;13.57;100.00
56402;BME280;42299;35.160;26.100;2022-11-22T05:34:35;101306.75;;;13.61;100.00
56402;BME280;42299;35.160;26.100;2022-11-22T05:35:58;101312.16;;;13.65;100.00
56402;BME280;42299;35.160;26.100;2022-11-22T05:37:19;101313.06;;;13.69;100.00
56402;BME280;42299;35.160;26.100;2022-11-22T05:38:43;101314.88;;;13.73;100.00
56402;BME280;42299;35.160;26.100;2022-11-22T05:40:07;101314.03;;;13.77;100.00
56402;BME280;42299;35.160;26.100;2022-11-22T05:41:28;101307.00;;;13.80;100.00
56402;BME280;42299;35.160;26.100;2022-11-22T05:42:51;101304.38;;;13.82;100.00
56402;BME280;42299;35.160;26.100;2022-11-22T05:44:12;101310.56;;;13.82;100.00
56402;BME280;42299;35.160;26.100;2022-11-22T05:45:36;101307.03;;;13.82;100.00
56402;BME280;42299;35.160;26.100;2022-11-22T05:46:59;101314.06;;;13.80;100.00
56402;BME280;42299;35.160;26.100;2022-11-22T05:48:21;101312.28;;;13.79;100.00
56402;BME280;42299;35.160;26.100;2022-11-22T05:49:43;101311.44;;;13.81;100.00
56402;BME280;42299;35.160;26.100;2022-11-22T05:51:06;101311.59;;;13.95;100.00
56402;BME280;42299;35.160;26.100;2022-11-22T05:52:27;101315.22;;;14.06;100.00
56402;BME280;42299;35.160;26.100;2022-11-22T05:53:50;101313.66;;;14.26;100.00
56402;BME280;42299;35.160;26.100;2022-11-22T05:55:12;101317.44;;;14.48;100.00
56402;BME280;42299;35.160;26.100;2022-11-22T05:56:34;101316.75;;;14.69;100.00
56402;BME280;42299;35.160;26.100;2022-11-22T05:57:58;101316.00;;;14.91;100.00
56402;BME280;42299;35.160;26.100;2022-11-22T05:59:21;101314.34;;;15.08;100.00
56402;BME280;42299;35.160;26.100;2022-11-22T06:00:44;101311.75;;;15.24;100.00
56402;BME280;42299;35.160;26.100;2022-11-22T06:02:06;101315.38;;;15.35;100.00
56402;BME280;42299;35.160;26.100;2022-11-22T06:03:28;101321.63;;;15.46;100.00
56402;BME280;42299;35.160;26.100;2022-11-22T06:04:50;101316.41;;;15.60;100.00
56402;BME280;42299;35.160;26.100;2022-11-22T06:06:13;101312.00;;;15.75;100.00
56402;BME280;42299;35.160;26.100;2022-11-22T06:07:35;101312.06;;;15.89;100.00
56402;BME280;42299;35.160;26.100;2022-11-22T06:08:57;101311.19;;;16.02;100.00
56402;BME280;42299;35.160;26.100;2022-11-22T06:10:20;101312.13;;;16.16;100.00
56402;BME280;42299;35.160;26.100;2022-11-22T06:11:42;101306.81;;;16.31;100.00
56402;BME280;42299;35.160;26.100;2022-11-22T06:13:05;101317.47;;;16.48;100.00
56402;BME280;42299;35.160;26.100;2022-11-22T06:14:27;101307.75;;;16.65;100.00
56402;BME280;42299;35.160;26.100;2022-11-22T06:15:51;101312.16;;;16.83;100.00
56402;BME280;42299;35.160;26.100;2022-11-22T06:17:13;101321.03;;;16.97;100.00
56402;BME280;42299;35.160;26.100;2022-11-22T06:18:36;101319.25;;;17.13;100.00
56402;BME280;42299;35.160;26.100;2022-11-22T06:19:58;101323.63;;;17.29;100.00
56402;BME280;42299;35.160;26.100;2022-11-22T06:21:24;101314.69;;;17.42;100.00
56402;BME280;42299;35.160;26.100;2022-11-22T06:22:48;101323.56;;;17.58;100.00
56402;BME280;42299;35.160;26.100;2022-11-22T06:24:10;101320.84;;;17.70;100.00
56402;BME280;42299;35.160;26.100;2022-11-22T06:25:33;101324.34;;;17.81;100.00
56402;BME280;42299;35.160;26.100;2022-11-22T06:26:55;101318.97;;;17.90;100.00
56402;BME280;42299;35.160;26.100;2022-11-22T06:28:16;101324.25;;;18.00;100.00
56402;BME280;42299;35.160;26.100;2022-11-22T06:29:39;101330.44;;;18.09;100.00
56402;BME280;42299;35.160;26.100;2022-11-22T06:31:05;101338.38;;;18.18;100.00
56402;BME280;42299;35.160;26.100;2022-11-22T06:32:31;101329.41;;;18.28;100.00
56402;BME280;42299;35.160;26.100;2022-11-22T06:33:55;101331.09;;;18.40;100.00
56402;BME280;42299;35.160;26.100;2022-11-22T06:35:19;101329.28;;;18.50;100.00
56402;BME280;42299;35.160;26.100;2022-11-22T06:36:41;101334.50;;;18.65;100.00
56402;BME280;42299;35.160;26.100;2022-11-22T06:38:02;101335.28;;;18.79;100.00
56402;BME280;42299;35.160;26.100;2022-11-22T06:39:25;101334.31;;;18.89;100.00
56402;BME280;42299;35.160;26.100;2022-11-22T06:40:48;101335.06;;;19.02;100.00
56402;BME280;42299;35.160;26.100;2022-11-22T06:42:10;101335.84;;;19.15;100.00
56402;BME280;42299;35.160;26.100;2022-11-22T06:43:32;101336.59;;;19.26;100.00
56402;BME280;42299;35.160;26.100;2022-11-22T06:44:55;101335.63;;;19.34;99.18
56402;BME280;42299;35.160;26.100;2022-11-22T06:46:20;101335.50;;;19.43;96.93
56402;BME280;42299;35.160;26.100;2022-11-22T06:47:43;101339.00;;;19.55;95.71
56402;BME280;42299;35.160;26.100;2022-11-22T06:49:04;101339.75;;;19.63;95.10
56402;BME280;42299;35.160;26.100;2022-11-22T06:50:27;101342.34;;;19.70;94.01
56402;BME280;42299;35.160;26.100;2022-11-22T06:51:49;101342.25;;;19.81;93.05
56402;BME280;42299;35.160;26.100;2022-11-22T06:53:12;101336.81;;;19.85;91.02
56402;BME280;42299;35.160;26.100;2022-11-22T06:54:35;101342.91;;;19.97;90.30
56402;BME280;42299;35.160;26.100;2022-11-22T06:55:59;101346.28;;;20.09;90.47
56402;BME280;42299;35.160;26.100;2022-11-22T06:57:22;101344.31;;;20.22;90.41
56402;BME280;42299;35.160;26.100;2022-11-22T06:58:45;101347.72;;;20.36;88.83
56402;BME280;42299;35.160;26.100;2022-11-22T07:00:09;101343.91;;;20.52;86.27
56402;BME280;42299;35.160;26.100;2022-11-22T07:01:35;101352.56;;;20.68;83.76
56402;BME280;42299;35.160;26.100;2022-11-22T07:02:58;101347.03;;;20.80;81.25
56402;BME280;42299;35.160;26.100;2022-11-22T07:04:21;101349.50;;;20.91;78.25
56402;BME280;42299;35.160;26.100;2022-11-22T07:05:49;101348.41;;;21.01;75.94
56402;BME280;42299;35.160;26.100;2022-11-22T07:07:11;101351.88;;;21.07;76.78
56402;BME280;42299;35.160;26.100;2022-11-22T07:08:35;101355.34;;;21.16;75.51
56402;BME280;42299;35.160;26.100;2022-11-22T07:09:56;101358.69;;;21.28;75.34
56402;BME280;42299;35.160;26.100;2022-11-22T07:11:21;101363.81;;;21.42;74.51
56402;BME280;42299;35.160;26.100;2022-11-22T07:12:44;101362.63;;;21.57;75.13
56402;BME280;42299;35.160;26.100;2022-11-22T07:14:05;101358.00;;;21.65;75.34
56402;BME280;42299;35.160;26.100;2022-11-22T07:15:28;101361.34;;;21.74;75.82
56402;BME280;42299;35.160;26.100;2022-11-22T07:16:52;101356.72;;;21.82;75.31
56402;BME280;42299;35.160;26.100;2022-11-22T07:18:14;101360.91;;;21.97;75.42
56402;BME280;42299;35.160;26.100;2022-11-22T07:19:36;101359.78;;;22.07;74.87
56402;BME280;42299;35.160;26.100;2022-11-22T07:21:00;101359.47;;;22.21;75.27
56402;BME280;42299;35.160;26.100;2022-11-22T07:22:22;101357.47;;;22.31;74.76